Time;durP1;ratioP1;P1;durP2;ratioP2;P2;SDS_P1;SDS_P2;PMS_P1;PMS_P2;Temp;Humidity;BMP_temperature;BMP_pressure;BME280_temperature;BME280_humidity;BME280_pressure;Samples;Min_cycle;Max_cycle;Signal;HPM_P1;HPM_P2
2021/03/06 00:01:20;;;;;;;3.17;1.60;;;1.20;54.80;;;;;;5004418;28;20554;-69
2021/03/06 00:03:47;;;;;;;2.90;1.63;;;1.20;54.60;;;;;;5007188;28;20045;-69
2021/03/06 00:06:13;;;;;;;3.95;1.77;;;1.20;54.70;;;;;;5005304;28;20380;-69
2021/03/06 00:08:39;;;;;;;3.28;1.42;;;1.20;54.70;;;;;;5011654;28;20053;-70
2021/03/06 00:11:05;;;;;;;3.00;1.77;;;1.20;54.80;;;;;;5014067;28;20596;-69
2021/03/06 00:13:35;;;;;;;2.60;1.50;;;1.10;54.60;;;;;;5005556;28;20465;-69
2021/03/06 00:16:02;;;;;;;2.75;1.60;;;1.10;54.60;;;;;;5005623;28;20046;-69
2021/03/06 00:18:29;;;;;;;2.88;1.67;;;1.00;54.70;;;;;;5005240;28;20088;-70
2021/03/06 00:20:56;;;;;;;3.85;1.55;;;1.00;54.60;;;;;;5007106;28;20053;-69
2021/03/06 00:23:40;;;;;;;2.33;1.33;;;0.90;54.60;;;;;;5006368;28;20448;-69
2021/03/06 00:26:06;;;;;;;3.92;1.45;;;0.90;54.90;;;;;;5003470;28;20469;-69
2021/03/06 00:28:32;;;;;;;3.45;1.40;;;0.80;54.80;;;;;;5006926;28;20058;-69
2021/03/06 00:30:58;;;;;;;3.13;1.30;;;0.80;54.90;;;;;;5004950;28;20121;-69
2021/03/06 00:33:24;;;;;;;2.15;1.50;;;0.70;54.90;;;;;;5001447;28;20057;-69
2021/03/06 00:35:51;;;;;;;2.15;1.30;;;0.70;54.80;;;;;;5001673;28;20048;-71
2021/03/06 00:38:18;;;;;;;3.53;1.50;;;0.70;54.70;;;;;;5005916;28;20362;-69
2021/03/06 00:40:44;;;;;;;2.17;1.48;;;0.70;54.70;;;;;;5005718;28;20053;-70
2021/03/06 00:43:10;;;;;;;1.60;0.90;;;0.70;54.90;;;;;;5006833;28;20046;-70
2021/03/06 00:45:36;;;;;;;2.72;1.23;;;0.60;54.90;;;;;;5002517;28;20313;-69
2021/03/06 00:48:02;;;;;;;2.42;1.27;;;0.60;55.10;;;;;;5007588;28;20048;-69
2021/03/06 00:50:33;;;;;;;2.13;1.40;;;0.60;54.90;;;;;;5005364;28;20058;-69
2021/03/06 00:52:59;;;;;;;1.90;1.10;;;0.50;54.60;;;;;;5007379;28;20130;-70
2021/03/06 00:55:26;;;;;;;3.45;1.40;;;0.50;54.60;;;;;;5001071;28;20569;-69
2021/03/06 00:57:52;;;;;;;1.65;1.10;;;0.50;54.50;;;;;;5004447;28;20441;-70
2021/03/06 01:00:18;;;;;;;3.22;1.17;;;0.50;54.60;;;;;;5004366;28;20050;-69
2021/03/06 01:02:45;;;;;;;2.05;1.15;;;0.50;54.80;;;;;;5002990;28;20133;-69
2021/03/06 01:05:12;;;;;;;3.63;1.30;;;0.40;55.00;;;;;;5005096;28;20057;-69
2021/03/06 01:07:38;;;;;;;2.28;1.20;;;0.40;54.90;;;;;;5005123;28;20060;-69
2021/03/06 01:10:18;;;;;;;1.80;1.02;;;0.30;54.60;;;;;;5005388;28;20050;-69
2021/03/06 01:12:44;;;;;;;1.83;1.10;;;0.30;54.80;;;;;;5007848;28;20494;-69
2021/03/06 01:15:11;;;;;;;4.55;1.20;;;0.30;54.50;;;;;;5006291;28;20124;-69
2021/03/06 01:17:37;;;;;;;2.17;1.10;;;0.30;54.50;;;;;;5005463;28;20378;-69
2021/03/06 01:20:05;;;;;;;1.75;1.10;;;0.20;54.70;;;;;;5001911;28;20116;-69
2021/03/06 01:22:32;;;;;;;2.92;1.08;;;0.20;54.60;;;;;;5010191;28;20049;-70
2021/03/06 01:24:59;;;;;;;1.65;1.15;;;0.20;54.70;;;;;;5000747;28;20046;-69
2021/03/06 01:27:25;;;;;;;1.90;1.05;;;0.20;54.40;;;;;;5012125;28;20455;-69
2021/03/06 01:29:52;;;;;;;1.60;1.00;;;0.20;54.60;;;;;;5006796;28;20495;-69
2021/03/06 01:32:18;;;;;;;2.45;1.35;;;0.10;54.90;;;;;;5005560;28;20054;-69
2021/03/06 01:34:44;;;;;;;3.40;1.25;;;0.10;54.60;;;;;;5006456;28;20065;-70
2021/03/06 01:37:10;;;;;;;2.15;1.48;;;0.10;54.60;;;;;;5005280;28;20054;-70
2021/03/06 01:39:37;;;;;;;2.13;1.40;;;0.10;54.40;;;;;;5005893;28;20481;-70
2021/03/06 01:42:03;;;;;;;1.60;1.10;;;0.10;54.40;;;;;;5111975;27;20051;-69
2021/03/06 01:44:29;;;;;;;3.30;1.30;;;0.10;54.40;;;;;;5006665;28;20408;-70
2021/03/06 01:46:58;;;;;;;2.03;1.15;;;0.10;54.40;;;;;;5004089;28;20164;-69
2021/03/06 01:49:26;;;;;;;2.67;1.25;;;0.10;54.50;;;;;;5008115;28;20082;-69
2021/03/06 01:51:53;;;;;;;1.90;1.30;;;0.10;54.20;;;;;;5009229;28;20402;-69
2021/03/06 01:54:22;;;;;;;2.15;1.35;;;0.10;54.30;;;;;;5002502;28;20049;-69
2021/03/06 01:56:51;;;;;;;2.28;1.58;;;0.10;54.40;;;;;;5002331;28;20048;-69
2021/03/06 01:59:18;;;;;;;2.35;1.02;;;0.00;54.10;;;;;;5009518;28;20742;-70
2021/03/06 02:01:45;;;;;;;3.63;1.02;;;0.00;54.20;;;;;;5002523;28;20124;-69
2021/03/06 02:04:13;;;;;;;1.95;1.30;;;0.00;54.20;;;;;;5004424;28;20060;-70
2021/03/06 02:06:39;;;;;;;1.40;0.90;;;0.00;54.20;;;;;;5001739;28;20071;-69
2021/03/06 02:09:06;;;;;;;1.95;1.20;;;-0.10;54.10;;;;;;5006108;28;20045;-69
2021/03/06 02:12:10;;;;;;;1.80;1.15;;;-0.10;54.20;;;;;;5006751;28;20068;-69
2021/03/06 02:14:36;;;;;;;1.85;1.02;;;-0.20;54.00;;;;;;5002350;28;20046;-69
2021/03/06 02:17:21;;;;;;;1.40;0.90;;;-0.20;54.00;;;;;;5003668;28;20130;-69
2021/03/06 02:20:12;;;;;;;1.60;0.98;;;-0.20;54.00;;;;;;5004443;28;20050;-69
2021/03/06 02:23:06;;;;;;;1.40;0.93;;;-0.30;54.20;;;;;;5004406;28;20465;-69
2021/03/06 02:25:38;;;;;;;2.80;1.00;;;-0.40;54.50;;;;;;5003036;28;20049;-69
2021/03/06 02:28:30;;;;;;;1.98;1.30;;;-0.40;54.00;;;;;;5004597;28;20056;-69
2021/03/06 02:30:57;;;;;;;3.25;1.10;;;-0.40;54.00;;;;;;5007845;28;20077;-69
2021/03/06 02:33:29;;;;;;;1.63;1.00;;;-0.50;54.00;;;;;;5010703;28;20050;-69
2021/03/06 02:35:59;;;;;;;1.77;1.00;;;-0.50;54.10;;;;;;5001957;28;20057;-70
2021/03/06 02:38:29;;;;;;;2.47;1.05;;;-0.50;54.30;;;;;;5009238;28;20041;-69
2021/03/06 02:40:57;;;;;;;1.85;0.90;;;-0.60;54.20;;;;;;5094304;27;20366;-69
2021/03/06 02:43:25;;;;;;;1.88;1.10;;;-0.60;53.90;;;;;;5006911;28;20514;-69
2021/03/06 02:45:53;;;;;;;1.58;0.93;;;-0.60;54.00;;;;;;5006092;28;20054;-69
2021/03/06 02:48:20;;;;;;;1.83;1.23;;;-0.60;54.00;;;;;;5000106;28;20133;-69
2021/03/06 02:50:52;;;;;;;3.10;1.33;;;-0.60;54.00;;;;;;5003133;28;20046;-70
2021/03/06 02:53:20;;;;;;;2.85;1.08;;;-0.60;54.00;;;;;;5003621;28;20087;-70
2021/03/06 02:55:47;;;;;;;4.53;1.50;;;-0.70;53.90;;;;;;5004239;28;20046;-69
2021/03/06 02:58:34;;;;;;;1.65;1.15;;;-0.70;53.90;;;;;;5001935;28;20085;-69
2021/03/06 03:01:10;;;;;;;2.75;1.23;;;-0.70;54.10;;;;;;4999537;28;20445;-69
2021/03/06 03:03:43;;;;;;;1.45;0.90;;;-0.80;53.70;;;;;;4998257;28;20492;-69
2021/03/06 03:06:34;;;;;;;1.30;0.80;;;-0.80;54.20;;;;;;5002566;28;20052;-69
2021/03/06 03:09:11;;;;;;;2.50;1.27;;;-0.80;54.00;;;;;;5005931;28;20129;-69
2021/03/06 03:12:00;;;;;;;3.88;1.50;;;-0.80;54.00;;;;;;5103555;27;20073;-69
2021/03/06 03:14:39;;;;;;;2.05;0.90;;;-0.80;53.90;;;;;;5101707;27;20126;-69
2021/03/06 03:17:13;;;;;;;1.65;1.10;;;-0.80;54.00;;;;;;5003425;28;20080;-69
2021/03/06 03:20:32;;;;;;;2.17;1.00;;;-0.90;53.60;;;;;;5004162;28;20129;-69
2021/03/06 03:23:28;;;;;;;2.08;0.98;;;-0.90;53.70;;;;;;5045939;28;20135;-69
2021/03/06 03:26:05;;;;;;;1.55;1.15;;;-0.90;53.70;;;;;;5043898;28;20051;-70
2021/03/06 03:28:33;;;;;;;3.45;1.42;;;-0.90;53.70;;;;;;5015912;28;20064;-69
2021/03/06 03:31:01;;;;;;;1.48;1.20;;;-0.90;53.60;;;;;;5007586;28;20072;-69
2021/03/06 03:33:28;;;;;;;2.05;1.00;;;-1.00;53.60;;;;;;5005565;28;20154;-69
2021/03/06 03:35:57;;;;;;;1.85;1.27;;;-1.00;53.50;;;;;;5003711;28;20065;-69
2021/03/06 03:38:23;;;;;;;2.13;1.30;;;-1.00;53.60;;;;;;5006061;28;21956;-69
2021/03/06 03:40:50;;;;;;;2.60;1.30;;;-1.00;53.70;;;;;;5005798;28;20162;-69
2021/03/06 03:43:18;;;;;;;3.42;1.40;;;-1.00;53.70;;;;;;5012397;28;20462;-69
2021/03/06 03:45:44;;;;;;;2.85;1.50;;;-1.00;53.70;;;;;;5007646;28;20068;-69
2021/03/06 03:48:11;;;;;;;1.65;1.40;;;-1.00;53.70;;;;;;5005862;28;20050;-69
2021/03/06 03:50:37;;;;;;;2.65;1.85;;;-1.10;53.50;;;;;;5006942;28;20054;-69
2021/03/06 03:53:04;;;;;;;3.00;1.25;;;-1.10;53.50;;;;;;5006896;28;20046;-69
2021/03/06 03:55:31;;;;;;;5.22;1.52;;;-1.10;53.60;;;;;;5007482;28;20137;-70
2021/03/06 03:57:57;;;;;;;2.95;1.20;;;-1.20;53.60;;;;;;5006326;28;20068;-69
2021/03/06 04:00:23;;;;;;;2.33;1.38;;;-1.20;53.70;;;;;;5012853;28;20089;-68
2021/03/06 04:02:50;;;;;;;2.28;1.52;;;-1.20;54.00;;;;;;5008310;28;20057;-71
2021/03/06 04:05:17;;;;;;;2.42;1.42;;;-1.20;53.90;;;;;;5004889;28;20049;-69
2021/03/06 04:07:48;;;;;;;4.40;1.55;;;-1.20;53.80;;;;;;5099478;27;20136;-69
2021/03/06 04:10:21;;;;;;;1.92;1.38;;;-1.20;53.90;;;;;;5003130;28;20046;-69
2021/03/06 04:12:49;;;;;;;1.65;1.10;;;-1.20;53.70;;;;;;5002061;28;20401;-69
2021/03/06 04:15:16;;;;;;;1.65;1.25;;;-1.30;53.70;;;;;;5005714;28;20056;-69
2021/03/06 04:17:44;;;;;;;2.83;1.40;;;-1.30;53.80;;;;;;5006132;28;20060;-70
2021/03/06 04:20:13;;;;;;;1.80;1.20;;;-1.30;53.70;;;;;;5015144;28;20057;-70
2021/03/06 04:22:40;;;;;;;2.25;1.13;;;-1.30;53.70;;;;;;5004928;28;20397;-69
2021/03/06 04:25:07;;;;;;;2.28;1.42;;;-1.30;53.90;;;;;;5017629;28;20433;-69
2021/03/06 04:27:34;;;;;;;1.40;1.10;;;-1.40;53.80;;;;;;5006012;28;20189;-69
2021/03/06 04:30:01;;;;;;;2.05;1.00;;;-1.40;53.80;;;;;;5003873;28;20484;-70
2021/03/06 04:32:28;;;;;;;2.15;1.20;;;-1.40;53.80;;;;;;4995494;28;20051;-69
2021/03/06 04:34:54;;;;;;;4.75;1.40;;;-1.50;53.80;;;;;;5008124;28;20053;-70
2021/03/06 04:37:20;;;;;;;1.48;1.02;;;-1.50;53.70;;;;;;5006948;28;20046;-70
2021/03/06 04:39:46;;;;;;;2.00;1.58;;;-1.50;53.80;;;;;;5006753;28;20129;-70
2021/03/06 04:42:13;;;;;;;1.70;1.25;;;-1.50;53.70;;;;;;5003696;28;20081;-69
2021/03/06 04:44:39;;;;;;;2.00;1.50;;;-1.50;53.70;;;;;;5007310;28;20054;-69
2021/03/06 04:47:06;;;;;;;1.50;1.10;;;-1.50;53.70;;;;;;5000738;28;20052;-69
2021/03/06 04:49:33;;;;;;;2.60;1.33;;;-1.50;53.60;;;;;;5006763;28;20493;-69
2021/03/06 04:51:59;;;;;;;2.25;1.35;;;-1.50;53.50;;;;;;5010278;28;20073;-69
2021/03/06 04:54:26;;;;;;;1.50;1.20;;;-1.60;53.60;;;;;;5009818;28;20476;-69
2021/03/06 04:57:08;;;;;;;2.80;1.40;;;-1.60;53.60;;;;;;5010664;28;20050;-69
2021/03/06 04:59:35;;;;;;;1.58;1.23;;;-1.60;53.60;;;;;;5009221;28;20520;-71
2021/03/06 05:02:01;;;;;;;1.65;1.05;;;-1.60;53.60;;;;;;5003667;28;20048;-69
2021/03/06 05:04:29;;;;;;;1.52;0.90;;;-1.60;53.70;;;;;;5008946;28;20138;-69
2021/03/06 05:06:55;;;;;;;3.85;1.02;;;-1.70;53.60;;;;;;5020038;28;20041;-69
2021/03/06 05:09:22;;;;;;;2.45;1.30;;;-1.70;53.60;;;;;;5104078;27;20078;-69
2021/03/06 05:11:48;;;;;;;3.83;1.08;;;-1.70;53.70;;;;;;5004269;28;20082;-69
2021/03/06 05:14:14;;;;;;;2.20;1.10;;;-1.70;53.60;;;;;;5005501;28;20060;-70
2021/03/06 05:16:41;;;;;;;3.22;1.88;;;-1.70;53.70;;;;;;5001472;28;20136;-70
2021/03/06 05:19:07;;;;;;;3.90;1.73;;;-1.70;53.60;;;;;;5097745;27;20049;-70
2021/03/06 05:21:35;;;;;;;2.15;1.60;;;-1.70;53.60;;;;;;5001674;28;20129;-69
2021/03/06 05:24:03;;;;;;;4.03;1.52;;;-1.70;53.50;;;;;;5105241;27;20085;-69
2021/03/06 05:26:29;;;;;;;2.15;1.80;;;-1.80;53.50;;;;;;5003748;28;20129;-69
2021/03/06 05:28:55;;;;;;;3.25;1.83;;;-1.80;53.60;;;;;;5001470;28;21046;-69
2021/03/06 05:31:22;;;;;;;2.08;1.63;;;-1.80;53.50;;;;;;5009879;28;20042;-69
2021/03/06 05:33:48;;;;;;;2.97;1.52;;;-1.80;53.70;;;;;;5000960;28;20050;-69
2021/03/06 05:36:15;;;;;;;1.60;1.40;;;-1.80;53.60;;;;;;4998072;28;20408;-69
2021/03/06 05:38:41;;;;;;;1.65;1.40;;;-1.80;53.60;;;;;;5003731;28;20056;-70
2021/03/06 05:41:08;;;;;;;1.98;1.80;;;-1.80;53.70;;;;;;5005022;28;20050;-69
2021/03/06 05:43:35;;;;;;;1.83;1.38;;;-1.90;53.70;;;;;;5003685;28;20047;-69
2021/03/06 05:46:01;;;;;;;1.52;1.38;;;-1.90;53.70;;;;;;5090022;27;20068;-69
2021/03/06 05:48:28;;;;;;;2.75;1.40;;;-1.90;53.80;;;;;;5006374;28;20050;-70
2021/03/06 05:50:56;;;;;;;3.72;1.70;;;-1.90;53.80;;;;;;5003547;28;20057;-71
2021/03/06 05:53:26;;;;;;;1.75;1.63;;;-2.00;53.60;;;;;;5010462;28;20508;-69
2021/03/06 05:55:55;;;;;;;2.92;1.55;;;-2.00;53.40;;;;;;5003973;28;20049;-69
2021/03/06 05:58:22;;;;;;;1.73;1.50;;;-2.00;53.60;;;;;;5006296;28;20707;-69
2021/03/06 06:00:49;;;;;;;1.92;1.52;;;-2.00;53.60;;;;;;5010211;28;20038;-69
2021/03/06 06:03:50;;;;;;;2.30;1.73;;;-2.00;53.50;;;;;;5008480;28;20054;-69
2021/03/06 06:06:17;;;;;;;3.22;1.38;;;-2.00;53.60;;;;;;5095294;27;20053;-69
2021/03/06 06:08:58;;;;;;;1.77;1.42;;;-2.00;53.60;;;;;;5011946;28;20046;-69
2021/03/06 06:11:27;;;;;;;1.92;1.40;;;-2.00;53.60;;;;;;5007515;28;20050;-69
2021/03/06 06:13:57;;;;;;;2.33;1.48;;;-2.10;53.50;;;;;;4995453;28;20470;-69
2021/03/06 06:16:34;;;;;;;1.58;1.20;;;-2.10;53.60;;;;;;5005635;28;20128;-70
2021/03/06 06:19:10;;;;;;;2.70;1.08;;;-2.10;53.50;;;;;;5009208;28;20129;-70
2021/03/06 06:21:37;;;;;;;1.25;1.00;;;-2.10;53.50;;;;;;5004919;28;20133;-69
2021/03/06 06:24:09;;;;;;;2.22;1.17;;;-2.20;53.30;;;;;;5004150;28;20081;-69
2021/03/06 06:26:37;;;;;;;1.50;1.10;;;-2.20;53.60;;;;;;5002470;28;20191;-70
2021/03/06 06:29:03;;;;;;;1.80;1.00;;;-2.20;53.50;;;;;;5004714;28;20050;-69
2021/03/06 06:31:30;;;;;;;1.60;1.00;;;-2.20;53.50;;;;;;5006934;28;20563;-69
2021/03/06 06:33:56;;;;;;;2.25;1.10;;;-2.20;53.60;;;;;;5003687;28;20047;-70
2021/03/06 06:36:38;;;;;;;1.90;1.10;;;-2.10;53.70;;;;;;4996264;28;20046;-69
2021/03/06 06:39:06;;;;;;;2.25;1.00;;;-2.10;53.80;;;;;;5101894;27;20141;-69
2021/03/06 06:41:56;;;;;;;3.80;1.35;;;-2.10;54.40;;;;;;5013827;28;20077;-70
2021/03/06 06:44:24;;;;;;;1.80;1.10;;;-2.10;54.40;;;;;;5002445;28;20068;-69
2021/03/06 06:46:51;;;;;;;1.30;0.98;;;-2.00;54.10;;;;;;5005402;28;20113;-70
2021/03/06 06:49:19;;;;;;;2.60;0.80;;;-2.00;54.10;;;;;;5004823;28;20473;-71
2021/03/06 06:51:59;;;;;;;2.70;1.90;;;-1.90;54.40;;;;;;4999380;28;20404;-69
2021/03/06 06:54:25;;;;;;;2.63;1.20;;;-1.90;54.40;;;;;;4997491;28;20140;-70
2021/03/06 06:57:09;;;;;;;2.13;1.10;;;-1.80;54.60;;;;;;5006778;28;20048;-70
2021/03/06 06:59:37;;;;;;;1.63;0.98;;;-1.70;54.80;;;;;;4999388;28;20053;-70
2021/03/06 07:48:20;;;;;;;1.52;1.33;;;-0.10;57.50;;;;;;4992436;28;20387;-69
2021/03/06 07:50:48;;;;;;;1.55;1.02;;;0.10;58.20;;;;;;5005848;28;20116;-69
2021/03/06 07:53:16;;;;;;;1.67;1.15;;;0.20;58.00;;;;;;5008402;28;20042;-69
2021/03/06 07:55:43;;;;;;;1.58;0.95;;;0.30;57.80;;;;;;5005335;28;20042;-69
2021/03/06 07:58:12;;;;;;;2.70;0.95;;;0.40;58.10;;;;;;5003040;28;20388;-70
2021/03/06 08:00:58;;;;;;;2.33;1.27;;;0.50;58.00;;;;;;5007903;28;20046;-69
2021/03/06 08:05:55;;;;;;;;;;;0.80;59.10;;;;;;5006263;28;20048;-69
2021/03/06 08:08:34;;;;;;;1.50;1.23;;;1.00;60.10;;;;;;5006567;28;19921;-69
2021/03/06 08:11:11;;;;;;;3.47;1.08;;;1.10;59.60;;;;;;5006027;28;20128;-70
2021/03/06 08:13:43;;;;;;;2.47;1.25;;;1.30;59.90;;;;;;5004869;28;20088;-69
2021/03/06 08:16:27;;;;;;;1.80;1.13;;;1.50;59.80;;;;;;5005746;28;20392;-69
2021/03/06 08:19:21;;;;;;;1.92;1.38;;;1.70;60.10;;;;;;5006255;28;20045;-69
2021/03/06 08:21:49;;;;;;;1.75;1.20;;;1.90;60.40;;;;;;5010516;28;20081;-70
2021/03/06 08:24:16;;;;;;;2.00;1.40;;;2.10;60.60;;;;;;5008209;28;20077;-69
2021/03/06 08:27:04;;;;;;;2.10;1.20;;;2.30;60.80;;;;;;5003333;28;20062;-69
2021/03/06 08:29:48;;;;;;;2.47;1.10;;;2.50;60.90;;;;;;5007821;28;20054;-69
2021/03/06 08:32:18;;;;;;;1.92;1.13;;;2.70;61.20;;;;;;5003557;28;20512;-69
2021/03/06 08:34:50;;;;;;;2.67;1.50;;;2.90;61.70;;;;;;5006769;28;20137;-69
2021/03/06 08:37:19;;;;;;;2.50;1.30;;;3.10;62.40;;;;;;5002740;28;20088;-69
2021/03/06 08:40:06;;;;;;;1.90;1.08;;;3.30;62.80;;;;;;5004931;28;20491;-69
2021/03/06 08:42:38;;;;;;;2.05;1.13;;;3.40;62.70;;;;;;5004035;28;20069;-69
2021/03/06 08:45:11;;;;;;;1.52;0.90;;;3.60;62.90;;;;;;5005399;28;20103;-69
2021/03/06 08:47:39;;;;;;;2.38;1.10;;;3.70;63.70;;;;;;5005583;28;20046;-69
2021/03/06 08:50:12;;;;;;;2.03;1.00;;;3.80;63.80;;;;;;5007712;28;20503;-69
2021/03/06 08:52:39;;;;;;;2.20;0.90;;;3.90;63.80;;;;;;5007262;28;20054;-69
2021/03/06 08:55:07;;;;;;;2.33;1.13;;;4.10;63.90;;;;;;5103095;27;20044;-70
2021/03/06 08:57:38;;;;;;;2.13;1.30;;;4.20;63.70;;;;;;4998626;28;20473;-69
2021/03/06 09:00:17;;;;;;;1.30;0.80;;;4.30;63.80;;;;;;5003689;28;20048;-69
2021/03/06 09:02:44;;;;;;;2.60;0.93;;;4.50;64.60;;;;;;5096870;27;20042;-69
2021/03/06 09:05:18;;;;;;;2.00;0.93;;;4.60;64.20;;;;;;5003358;28;20057;-69
2021/03/06 09:07:56;;;;;;;2.58;0.80;;;4.70;64.50;;;;;;4998448;28;20046;-69
2021/03/06 09:10:30;;;;;;;1.90;0.90;;;4.80;64.60;;;;;;5001984;28;20473;-69
2021/03/06 09:12:59;;;;;;;1.40;0.73;;;4.90;64.50;;;;;;5003641;28;20385;-69
2021/03/06 09:15:42;;;;;;;2.08;0.77;;;5.00;65.40;;;;;;5093170;27;20098;-69
2021/03/06 09:18:11;;;;;;;2.15;0.70;;;5.20;65.20;;;;;;4996168;28;20053;-69
2021/03/06 09:20:46;;;;;;;1.20;0.60;;;5.40;65.50;;;;;;5000096;28;20069;-69
2021/03/06 09:23:26;;;;;;;2.88;1.02;;;5.50;65.70;;;;;;4995342;28;20111;-69
2021/03/06 09:25:52;;;;;;;1.23;0.63;;;5.70;65.60;;;;;;4996976;28;20049;-69
2021/03/06 09:28:26;;;;;;;2.00;1.05;;;5.90;66.10;;;;;;4998319;28;20549;-70
2021/03/06 09:30:53;;;;;;;1.88;0.82;;;6.10;66.50;;;;;;4995751;28;20048;-69
2021/03/06 09:33:33;;;;;;;1.67;0.80;;;6.20;67.00;;;;;;4999794;28;20054;-69
2021/03/06 09:36:05;;;;;;;1.70;0.82;;;6.40;66.60;;;;;;4994421;28;20412;-70
2021/03/06 09:38:47;;;;;;;1.25;0.60;;;6.60;66.80;;;;;;4999274;28;20045;-69
2021/03/06 09:41:16;;;;;;;1.45;0.60;;;6.70;67.30;;;;;;5094394;27;20052;-69
2021/03/06 09:43:44;;;;;;;1.15;0.60;;;6.90;67.30;;;;;;4999088;28;20069;-69
2021/03/06 09:46:16;;;;;;;2.08;0.80;;;7.00;67.50;;;;;;4992832;28;20062;-69
2021/03/06 09:48:49;;;;;;;1.35;0.60;;;7.10;67.70;;;;;;4998104;28;20058;-69
2021/03/06 09:51:17;;;;;;;0.93;0.57;;;7.30;68.10;;;;;;5004794;28;20141;-70
2021/03/06 09:53:53;;;;;;;0.98;0.50;;;7.60;68.40;;;;;;4997946;28;20408;-70
2021/03/06 09:56:19;;;;;;;1.23;0.70;;;7.90;68.90;;;;;;5092795;27;20058;-70
2021/03/06 09:58:45;;;;;;;2.25;0.80;;;8.10;69.20;;;;;;5005964;28;20050;-70
2021/03/06 10:01:20;;;;;;;2.15;0.80;;;8.40;70.10;;;;;;4994735;28;20046;-70
2021/03/06 10:03:49;;;;;;;1.38;0.60;;;8.60;70.70;;;;;;4997065;28;20050;-70
2021/03/06 10:06:22;;;;;;;2.33;1.05;;;8.90;71.60;;;;;;4980928;28;20058;-69
2021/03/06 10:08:55;;;;;;;2.17;0.70;;;9.10;72.90;;;;;;4999664;28;20050;-69
2021/03/06 10:12:00;;;;;;;1.73;0.73;;;9.30;74.00;;;;;;4996588;28;20050;-69
2021/03/06 10:14:27;;;;;;;0.90;0.50;;;9.50;76.10;;;;;;5014067;28;20060;-70
2021/03/06 10:16:59;;;;;;;0.98;0.40;;;9.80;78.70;;;;;;4997613;28;21043;-69
2021/03/06 10:19:27;;;;;;;0.85;0.50;;;10.00;77.60;;;;;;4997629;28;20062;-69
2021/03/06 10:22:04;;;;;;;2.88;0.50;;;10.20;80.40;;;;;;4991973;28;20046;-70
2021/03/06 10:24:50;;;;;;;1.05;0.50;;;10.30;80.60;;;;;;4993184;28;20150;-69
2021/03/06 10:27:16;;;;;;;1.63;0.50;;;10.40;81.00;;;;;;4994257;28;20056;-69
2021/03/06 10:29:43;;;;;;;0.88;0.50;;;10.30;80.50;;;;;;4994042;28;20049;-69
2021/03/06 10:32:09;;;;;;;1.05;0.38;;;10.20;80.20;;;;;;4992747;28;20429;-69
2021/03/06 10:34:49;;;;;;;2.50;0.60;;;10.00;79.30;;;;;;4998419;28;20124;-69
2021/03/06 10:37:17;;;;;;;1.40;0.60;;;10.00;79.90;;;;;;4995284;28;20553;-69
2021/03/06 10:40:04;;;;;;;1.17;0.53;;;10.10;79.70;;;;;;4995352;28;20046;-69
2021/03/06 10:42:47;;;;;;;1.10;0.50;;;10.30;80.90;;;;;;4996284;28;20439;-70
2021/03/06 10:45:28;;;;;;;1.60;0.60;;;10.70;83.70;;;;;;4995263;28;20052;-69
2021/03/06 10:47:57;;;;;;;1.77;0.60;;;11.00;84.70;;;;;;4997559;28;20058;-70
2021/03/06 10:50:33;;;;;;;2.00;0.80;;;11.20;85.00;;;;;;4995467;28;20049;-69
2021/03/06 10:53:17;;;;;;;2.30;0.68;;;11.50;85.60;;;;;;4995354;28;20655;-70
2021/03/06 10:55:44;;;;;;;1.35;0.60;;;11.50;83.50;;;;;;4997087;28;20077;-69
2021/03/06 10:58:11;;;;;;;0.85;0.40;;;11.50;85.00;;;;;;5095335;27;20050;-70
2021/03/06 11:00:40;;;;;;;1.33;0.52;;;11.70;85.80;;;;;;4997546;28;20050;-70
2021/03/06 11:03:11;;;;;;;1.70;0.80;;;12.00;87.90;;;;;;5092906;27;20374;-70
2021/03/06 11:05:40;;;;;;;3.28;1.10;;;12.20;88.00;;;;;;4998368;28;20041;-70
2021/03/06 11:08:13;;;;;;;1.77;0.98;;;12.50;89.10;;;;;;4998475;28;20046;-70
2021/03/06 11:10:42;;;;;;;1.65;0.90;;;12.60;88.40;;;;;;5091880;27;20158;-69
2021/03/06 11:13:08;;;;;;;2.67;0.90;;;12.40;86.90;;;;;;4998809;28;20049;-70
2021/03/06 11:15:35;;;;;;;2.17;0.85;;;12.30;87.40;;;;;;4996508;28;20061;-69
2021/03/06 11:18:03;;;;;;;2.40;1.10;;;12.50;89.10;;;;;;4996401;28;20442;-70
2021/03/06 11:20:33;;;;;;;2.30;0.98;;;12.90;90.00;;;;;;4999059;28;20219;-69
2021/03/06 11:23:01;;;;;;;2.97;1.17;;;13.10;89.50;;;;;;5007761;28;20046;-69
2021/03/06 11:25:29;;;;;;;2.22;0.90;;;13.10;88.60;;;;;;4994163;28;20111;-70
2021/03/06 11:27:59;;;;;;;2.70;1.00;;;13.00;86.90;;;;;;4997108;28;20058;-69
2021/03/06 11:30:35;;;;;;;2.75;1.00;;;12.80;85.60;;;;;;4996519;28;20401;-69
2021/03/06 11:33:05;;;;;;;3.30;1.00;;;12.40;83.60;;;;;;5009705;28;20127;-70
2021/03/06 11:35:31;;;;;;;3.45;1.00;;;12.10;82.80;;;;;;4993745;28;20518;-70
2021/03/06 11:37:59;;;;;;;3.33;0.90;;;12.10;80.70;;;;;;5091486;27;20046;-69
2021/03/06 11:40:28;;;;;;;2.53;1.10;;;12.10;81.20;;;;;;5004166;28;20126;-69
2021/03/06 11:42:54;;;;;;;1.83;0.90;;;11.80;79.70;;;;;;4996022;28;20049;-69
2021/03/06 11:45:22;;;;;;;2.78;1.10;;;11.50;79.40;;;;;;4995732;28;20046;-69
2021/03/06 11:47:49;;;;;;;2.55;0.90;;;11.40;78.80;;;;;;4998597;28;20077;-70
2021/03/06 11:50:19;;;;;;;3.25;1.15;;;11.40;79.00;;;;;;5000055;28;20374;-69
2021/03/06 11:52:46;;;;;;;2.42;0.90;;;11.80;80.40;;;;;;5007602;28;20854;-70
2021/03/06 11:55:13;;;;;;;1.58;0.77;;;12.30;81.60;;;;;;5006304;28;20064;-70
2021/03/06 11:57:40;;;;;;;1.70;0.80;;;12.80;83.10;;;;;;4998125;28;20217;-70
2021/03/06 12:00:10;;;;;;;2.83;0.85;;;13.30;84.00;;;;;;5096140;27;20131;-69
2021/03/06 12:02:36;;;;;;;2.85;0.80;;;13.50;75.70;;;;;;4998918;28;20432;-70
2021/03/06 12:05:08;;;;;;;2.45;0.90;;;13.40;75.90;;;;;;5000894;28;20474;-69
2021/03/06 12:07:35;;;;;;;2.10;0.90;;;13.20;78.70;;;;;;4997807;28;20046;-70
2021/03/06 12:10:03;;;;;;;1.85;0.98;;;13.40;79.00;;;;;;5003364;28;20561;-70
2021/03/06 12:12:30;;;;;;;1.27;0.60;;;13.80;75.90;;;;;;4998557;28;20060;-69
2021/03/06 12:14:56;;;;;;;1.20;0.50;;;14.00;73.50;;;;;;5002071;28;20053;-70
2021/03/06 12:17:22;;;;;;;1.05;0.40;;;14.20;73.90;;;;;;5002216;28;20080;-70
2021/03/06 12:27:23;;;;;;;1.40;0.50;;;14.80;72.90;;;;;;5002559;28;20091;-70
2021/03/06 12:29:49;;;;;;;1.30;0.50;;;14.90;74.40;;;;;;4996627;28;20038;-70
2021/03/06 12:32:19;;;;;;;1.92;0.60;;;14.80;74.70;;;;;;4999370;28;20046;-70
2021/03/06 12:34:46;;;;;;;1.30;0.50;;;14.70;74.70;;;;;;4994710;28;20622;-69
2021/03/06 12:37:12;;;;;;;1.45;0.50;;;14.60;74.00;;;;;;5001294;28;20074;-70
2021/03/06 12:39:38;;;;;;;1.20;0.60;;;14.40;73.00;;;;;;5003294;28;20046;-70
2021/03/06 12:42:05;;;;;;;1.73;0.63;;;14.20;71.70;;;;;;5000430;28;20044;-70
2021/03/06 12:44:31;;;;;;;1.88;0.65;;;14.10;71.40;;;;;;4995462;28;20050;-69
2021/03/06 12:46:57;;;;;;;1.65;0.65;;;14.10;71.70;;;;;;5088711;27;20055;-70
2021/03/06 12:49:24;;;;;;;1.90;0.60;;;14.10;71.80;;;;;;4999311;28;20111;-70
2021/03/06 12:51:50;;;;;;;2.28;0.73;;;14.30;72.10;;;;;;4999336;28;20058;-70
2021/03/06 12:54:17;;;;;;;2.97;0.60;;;14.30;72.90;;;;;;4996377;28;20053;-69
2021/03/06 12:56:43;;;;;;;2.38;0.70;;;14.30;72.80;;;;;;4991758;28;20045;-69
2021/03/06 12:59:09;;;;;;;3.88;0.75;;;14.20;72.00;;;;;;4994366;28;20060;-69
2021/03/06 13:01:36;;;;;;;1.98;0.65;;;14.00;70.30;;;;;;5100331;27;20042;-70
2021/03/06 13:04:03;;;;;;;2.00;0.65;;;13.70;70.30;;;;;;5104488;27;20054;-70
2021/03/06 13:06:29;;;;;;;1.77;0.80;;;13.50;68.00;;;;;;5002893;28;20052;-70
2021/03/06 13:08:55;;;;;;;2.08;0.88;;;13.20;67.30;;;;;;4999944;28;20728;-69
2021/03/06 13:11:22;;;;;;;1.30;0.60;;;12.80;66.60;;;;;;5102996;27;20060;-70
2021/03/06 13:13:48;;;;;;;1.70;0.70;;;12.60;66.40;;;;;;5003272;28;20050;-70
2021/03/06 13:16:14;;;;;;;4.68;0.85;;;12.40;65.80;;;;;;5004442;28;20056;-70
2021/03/06 13:18:41;;;;;;;2.72;0.80;;;12.30;65.40;;;;;;5003985;28;20046;-70
2021/03/06 13:21:07;;;;;;;1.63;0.70;;;12.20;65.10;;;;;;5004745;28;20077;-69
2021/03/06 13:23:35;;;;;;;1.77;0.70;;;12.20;64.80;;;;;;5006288;28;20281;-69
2021/03/06 13:26:02;;;;;;;2.25;0.60;;;12.10;64.50;;;;;;5005706;28;20148;-69
2021/03/06 13:28:29;;;;;;;1.30;0.60;;;12.00;64.00;;;;;;5005774;28;20137;-70
2021/03/06 13:30:55;;;;;;;1.70;0.73;;;11.90;63.70;;;;;;4997922;28;20056;-70
2021/03/06 13:33:22;;;;;;;1.63;0.70;;;11.80;63.50;;;;;;5009116;28;20073;-70
2021/03/06 13:35:48;;;;;;;1.35;0.63;;;11.80;63.60;;;;;;4995903;28;20485;-70
2021/03/06 13:38:15;;;;;;;1.70;0.80;;;11.80;63.30;;;;;;5006176;28;20052;-69
2021/03/06 13:40:42;;;;;;;3.15;0.90;;;11.80;63.20;;;;;;5000816;28;20057;-70
2021/03/06 13:43:09;;;;;;;1.67;0.65;;;11.70;63.10;;;;;;5107098;27;20136;-69
2021/03/06 13:45:36;;;;;;;1.35;0.50;;;11.70;63.00;;;;;;5005271;28;20034;-70
2021/03/06 13:48:04;;;;;;;2.35;0.77;;;11.60;62.80;;;;;;5004339;28;20471;-70
2021/03/06 13:50:31;;;;;;;2.10;0.80;;;11.70;63.10;;;;;;5004499;28;20057;-69
2021/03/06 13:52:59;;;;;;;2.63;1.10;;;11.90;63.30;;;;;;5008272;28;20077;-69
2021/03/06 13:55:26;;;;;;;1.50;0.70;;;12.10;63.50;;;;;;5002985;28;20055;-69
2021/03/06 13:57:52;;;;;;;1.75;0.73;;;12.20;63.40;;;;;;5005995;28;20053;-69
2021/03/06 14:00:18;;;;;;;3.38;0.80;;;12.30;63.20;;;;;;5002707;28;20061;-70
2021/03/06 14:02:45;;;;;;;1.80;0.70;;;12.30;63.00;;;;;;5005791;28;20140;-70